Rico, CO

6:15 PM MST on February 28, 2015 (GMT -0700)
APRSWXNET Rico CO US | Change Station
CLOSE
Current Station
Personal Weather Station
Location: Rico, CO
Elevation: 9041 ft
Nearby Weather Stations

Elev 9041 ft 37.70 °N, 108.03 °W | Updated 25 minutes ago

Snow
Snow
27 °F
Feels Like 27 °F
N
0
Wind Variable Wind from ENE
Gusts 0.0 mph

Today
High -- | Low -- °F
--% Chance of Precip.
Yesterday
High -- | Low -- °F
Precip. -- in
6:45 AM 6:04 PM
Waxing Gibbous, 81% visible
Pressure 29.82 in
Visibility 0.8 miles
Clouds Mostly Cloudy 400 ft
Mostly Cloudy 1100 ft
Overcast 2300 ft
Windchill 27 °F
Dew Point 22 °F
Humidity 81%
Rainfall 0.00 in
Snow Depth Not available.
UV 0 out of 12
Pollen 1.00 out of 12
Air Quality Not available.
Flu Activity Not available.
METAR KTEX 010035Z AUTO 00000KT 3/4SM -SN BKN004 BKN011 OVC023 M02/M04 A2982 RMK AO2 T10201042

More Conditions Fewer Conditions

Pressure 29.82 in
Visibility 0.8 miles
Clouds Mostly Cloudy 400 ft
Mostly Cloudy 1100 ft
Overcast 2300 ft
Windchill 27 °F
Dew Point 22 °F
Humidity 81%
Rainfall 0.00 in
Snow Depth Not available.
UV 0 out of 12
Pollen 1.00 out of 12
Air Quality Not available.
Flu Activity Not available.
METAR KTEX 010035Z AUTO 00000KT 3/4SM -SN BKN004 BKN011 OVC023 M02/M04 A2982 RMK AO2 T10201042

More Conditions Fewer Conditions

10-Day Weather Forecast

Almanac

Astronomy

Feb. 28, 2015 Rise Set
Actual Time
Civil Twilight
Nautical Twilight
Astronomical Twilight
Moon
Length of Visible Light
Length of Day
Tomorrow will be .
, % of the Moon is Illuminated

Today's Extremes

State Highs State Lows

Community

WunderPhotos

Upload Photos

1,801,220 photos uploaded!

WunderBlogs® & News

Nearby

Air Quality

  Air Quality AQ Index Pollutant
Not available.

Snow Depth

Station Depth Elevation

Earthquake Activity

City Distance Mag. Time & Date
Minimum magnitude displayed is 2.5.

Coastal Water Temperatures

Place Temperature

Nearby Weather Stations

Winter Storm Warning
Statement as of 3:42 PM MST on February 28, 2015

... Winter Storm Warning remains in effect until 8 PM MST Monday...

* locations include the cities of... Ouray... Telluride... Lake
City... Silverton... Rico... Hesperus.

* Timing... periods of snow through Monday evening. Snow will be
heavy at times especially this evening and then late Sunday.

* Snow accumulation... 2 to 4 feet with the highest amounts
expected from Silverton southeast to the New Mexico border.

* Winds... southwest 10 to 25 mph with higher gusts at times.
Areas of blowing snow at times.

* Visibility... restricted at times in snow and blowing snow.

* Impacts... travel is expected to become difficult or impossible
this weekend through Wednesday.

Precautionary/preparedness actions...

A Winter Storm Warning means significant amounts of snow are
expected or occurring. Strong winds and blowing snow are also
possible. This will make travel very hazardous or impossible.